sensor_id;sensor_type;location;lat;lon;timestamp;P1;durP1;ratioP1;P2;durP2;ratioP2
71464;SDS011;59274;49.874;9.154;2023-05-13T00:02:17;4.07;;;2.00;;
71464;SDS011;59274;49.874;9.154;2023-05-13T00:04:42;2.85;;;1.70;;
71464;SDS011;59274;49.874;9.154;2023-05-13T00:07:08;5.83;;;1.63;;
71464;SDS011;59274;49.874;9.154;2023-05-13T00:09:33;3.83;;;1.60;;
71464;SDS011;59274;49.874;9.154;2023-05-13T00:11:59;3.33;;;1.80;;
71464;SDS011;59274;49.874;9.154;2023-05-13T00:14:24;4.00;;;2.00;;
71464;SDS011;59274;49.874;9.154;2023-05-13T00:16:50;4.50;;;1.87;;
71464;SDS011;59274;49.874;9.154;2023-05-13T00:19:15;3.93;;;1.83;;
71464;SDS011;59274;49.874;9.154;2023-05-13T00:21:41;2.85;;;1.75;;
71464;SDS011;59274;49.874;9.154;2023-05-13T00:24:06;4.07;;;2.10;;
71464;SDS011;59274;49.874;9.154;2023-05-13T00:26:32;4.17;;;2.20;;
71464;SDS011;59274;49.874;9.154;2023-05-13T00:28:57;2.73;;;1.87;;
71464;SDS011;59274;49.874;9.154;2023-05-13T00:31:23;2.97;;;1.85;;
71464;SDS011;59274;49.874;9.154;2023-05-13T00:33:48;3.67;;;2.03;;
71464;SDS011;59274;49.874;9.154;2023-05-13T00:36:14;3.87;;;1.93;;
71464;SDS011;59274;49.874;9.154;2023-05-13T00:38:39;4.20;;;2.45;;
71464;SDS011;59274;49.874;9.154;2023-05-13T00:41:05;4.40;;;2.13;;
71464;SDS011;59274;49.874;9.154;2023-05-13T00:43:33;3.40;;;1.83;;
71464;SDS011;59274;49.874;9.154;2023-05-13T00:45:59;7.80;;;3.42;;
71464;SDS011;59274;49.874;9.154;2023-05-13T00:48:24;5.13;;;2.70;;
71464;SDS011;59274;49.874;9.154;2023-05-13T00:50:50;6.30;;;2.80;;
71464;SDS011;59274;49.874;9.154;2023-05-13T00:53:16;6.57;;;2.85;;
71464;SDS011;59274;49.874;9.154;2023-05-13T00:55:42;9.50;;;3.27;;
71464;SDS011;59274;49.874;9.154;2023-05-13T00:58:08;8.55;;;3.33;;
71464;SDS011;59274;49.874;9.154;2023-05-13T01:00:37;8.77;;;3.22;;
71464;SDS011;59274;49.874;9.154;2023-05-13T01:03:10;6.82;;;2.78;;
71464;SDS011;59274;49.874;9.154;2023-05-13T01:11:13;5.68;;;2.65;;
71464;SDS011;59274;49.874;9.154;2023-05-13T01:13:49;4.70;;;2.40;;
71464;SDS011;59274;49.874;9.154;2023-05-13T01:16:33;4.88;;;2.22;;
71464;SDS011;59274;49.874;9.154;2023-05-13T01:19:04;3.97;;;2.20;;
71464;SDS011;59274;49.874;9.154;2023-05-13T01:21:41;3.65;;;1.58;;
71464;SDS011;59274;49.874;9.154;2023-05-13T01:24:16;2.25;;;1.52;;
71464;SDS011;59274;49.874;9.154;2023-05-13T01:26:41;7.33;;;2.17;;
71464;SDS011;59274;49.874;9.154;2023-05-13T01:29:06;3.83;;;2.13;;
71464;SDS011;59274;49.874;9.154;2023-05-13T01:31:32;4.45;;;2.10;;
71464;SDS011;59274;49.874;9.154;2023-05-13T01:33:57;3.43;;;1.73;;
71464;SDS011;59274;49.874;9.154;2023-05-13T01:36:23;3.30;;;1.90;;
71464;SDS011;59274;49.874;9.154;2023-05-13T01:38:49;4.53;;;1.80;;
71464;SDS011;59274;49.874;9.154;2023-05-13T01:41:16;6.10;;;2.25;;
71464;SDS011;59274;49.874;9.154;2023-05-13T01:43:41;6.20;;;2.13;;
71464;SDS011;59274;49.874;9.154;2023-05-13T01:46:13;5.37;;;2.33;;
71464;SDS011;59274;49.874;9.154;2023-05-13T01:48:38;4.63;;;2.20;;
71464;SDS011;59274;49.874;9.154;2023-05-13T01:51:03;5.27;;;2.53;;
71464;SDS011;59274;49.874;9.154;2023-05-13T01:53:29;4.05;;;2.13;;
71464;SDS011;59274;49.874;9.154;2023-05-13T01:55:55;4.70;;;2.37;;
71464;SDS011;59274;49.874;9.154;2023-05-13T01:58:20;3.38;;;2.08;;
71464;SDS011;59274;49.874;9.154;2023-05-13T02:00:46;4.23;;;1.97;;
71464;SDS011;59274;49.874;9.154;2023-05-13T02:03:11;3.70;;;2.10;;
71464;SDS011;59274;49.874;9.154;2023-05-13T02:05:37;4.53;;;2.20;;
71464;SDS011;59274;49.874;9.154;2023-05-13T02:08:02;6.30;;;3.73;;
71464;SDS011;59274;49.874;9.154;2023-05-13T02:10:27;5.30;;;2.80;;
71464;SDS011;59274;49.874;9.154;2023-05-13T02:12:53;4.97;;;2.47;;
71464;SDS011;59274;49.874;9.154;2023-05-13T02:15:18;5.13;;;2.60;;
71464;SDS011;59274;49.874;9.154;2023-05-13T02:17:44;3.83;;;2.40;;
71464;SDS011;59274;49.874;9.154;2023-05-13T02:20:09;4.40;;;1.97;;
71464;SDS011;59274;49.874;9.154;2023-05-13T02:22:35;4.88;;;3.13;;
71464;SDS011;59274;49.874;9.154;2023-05-13T02:25:02;5.07;;;2.23;;
71464;SDS011;59274;49.874;9.154;2023-05-13T02:27:28;4.72;;;3.03;;
71464;SDS011;59274;49.874;9.154;2023-05-13T02:29:53;4.03;;;2.40;;
71464;SDS011;59274;49.874;9.154;2023-05-13T02:32:19;6.07;;;2.60;;
71464;SDS011;59274;49.874;9.154;2023-05-13T02:34:44;5.27;;;2.83;;
71464;SDS011;59274;49.874;9.154;2023-05-13T02:37:09;4.63;;;2.50;;
71464;SDS011;59274;49.874;9.154;2023-05-13T02:39:35;4.35;;;2.05;;
71464;SDS011;59274;49.874;9.154;2023-05-13T02:42:00;3.70;;;2.07;;
71464;SDS011;59274;49.874;9.154;2023-05-13T02:44:26;5.43;;;2.75;;
71464;SDS011;59274;49.874;9.154;2023-05-13T02:46:52;4.60;;;2.20;;
71464;SDS011;59274;49.874;9.154;2023-05-13T02:49:17;7.77;;;2.47;;
71464;SDS011;59274;49.874;9.154;2023-05-13T02:51:43;6.00;;;2.37;;
71464;SDS011;59274;49.874;9.154;2023-05-13T02:54:08;6.07;;;2.90;;
71464;SDS011;59274;49.874;9.154;2023-05-13T02:56:33;5.18;;;2.15;;
71464;SDS011;59274;49.874;9.154;2023-05-13T02:58:59;4.87;;;2.27;;
71464;SDS011;59274;49.874;9.154;2023-05-13T03:01:24;4.40;;;2.27;;
71464;SDS011;59274;49.874;9.154;2023-05-13T03:03:53;4.70;;;2.25;;
71464;SDS011;59274;49.874;9.154;2023-05-13T03:06:18;3.53;;;1.70;;
71464;SDS011;59274;49.874;9.154;2023-05-13T03:08:44;2.78;;;1.38;;
71464;SDS011;59274;49.874;9.154;2023-05-13T03:11:09;4.43;;;2.43;;
71464;SDS011;59274;49.874;9.154;2023-05-13T03:13:35;3.50;;;2.00;;
71464;SDS011;59274;49.874;9.154;2023-05-13T03:16:00;4.70;;;2.17;;
71464;SDS011;59274;49.874;9.154;2023-05-13T03:18:25;3.08;;;1.42;;
71464;SDS011;59274;49.874;9.154;2023-05-13T03:20:52;4.93;;;2.33;;
71464;SDS011;59274;49.874;9.154;2023-05-13T03:23:18;2.85;;;1.98;;
71464;SDS011;59274;49.874;9.154;2023-05-13T03:25:43;4.27;;;1.97;;
71464;SDS011;59274;49.874;9.154;2023-05-13T03:28:09;3.83;;;1.67;;
71464;SDS011;59274;49.874;9.154;2023-05-13T03:30:34;4.17;;;2.23;;
71464;SDS011;59274;49.874;9.154;2023-05-13T03:33:00;3.85;;;2.33;;
71464;SDS011;59274;49.874;9.154;2023-05-13T03:35:25;7.33;;;2.30;;
71464;SDS011;59274;49.874;9.154;2023-05-13T03:37:51;4.73;;;2.10;;
71464;SDS011;59274;49.874;9.154;2023-05-13T03:40:16;3.28;;;2.10;;
71464;SDS011;59274;49.874;9.154;2023-05-13T03:42:42;3.40;;;1.90;;
71464;SDS011;59274;49.874;9.154;2023-05-13T03:45:08;2.72;;;1.67;;
71464;SDS011;59274;49.874;9.154;2023-05-13T03:47:34;5.53;;;2.20;;
71464;SDS011;59274;49.874;9.154;2023-05-13T03:49:59;4.85;;;2.40;;
71464;SDS011;59274;49.874;9.154;2023-05-13T03:52:25;5.10;;;2.33;;
71464;SDS011;59274;49.874;9.154;2023-05-13T03:54:50;4.70;;;2.00;;
71464;SDS011;59274;49.874;9.154;2023-05-13T03:57:15;6.67;;;2.93;;
71464;SDS011;59274;49.874;9.154;2023-05-13T03:59:41;3.57;;;2.13;;
71464;SDS011;59274;49.874;9.154;2023-05-13T04:02:06;5.78;;;2.58;;
71464;SDS011;59274;49.874;9.154;2023-05-13T04:04:32;5.10;;;2.38;;
71464;SDS011;59274;49.874;9.154;2023-05-13T04:06:57;5.50;;;2.50;;
71464;SDS011;59274;49.874;9.154;2023-05-13T04:09:22;6.57;;;2.60;;
71464;SDS011;59274;49.874;9.154;2023-05-13T04:11:48;2.87;;;1.67;;
71464;SDS011;59274;49.874;9.154;2023-05-13T04:14:14;8.20;;;3.03;;
71464;SDS011;59274;49.874;9.154;2023-05-13T04:16:39;4.83;;;2.43;;
71464;SDS011;59274;49.874;9.154;2023-05-13T04:19:04;4.50;;;1.90;;
71464;SDS011;59274;49.874;9.154;2023-05-13T04:21:30;4.20;;;2.07;;
71464;SDS011;59274;49.874;9.154;2023-05-13T04:23:56;3.10;;;1.88;;
71464;SDS011;59274;49.874;9.154;2023-05-13T04:26:21;2.90;;;1.73;;
71464;SDS011;59274;49.874;9.154;2023-05-13T04:28:47;4.18;;;2.08;;
71464;SDS011;59274;49.874;9.154;2023-05-13T04:31:12;3.93;;;1.83;;
71464;SDS011;59274;49.874;9.154;2023-05-13T04:33:37;3.70;;;2.00;;
71464;SDS011;59274;49.874;9.154;2023-05-13T04:36:03;4.47;;;2.50;;
71464;SDS011;59274;49.874;9.154;2023-05-13T04:38:29;5.00;;;2.30;;
71464;SDS011;59274;49.874;9.154;2023-05-13T04:40:55;2.88;;;1.67;;
71464;SDS011;59274;49.874;9.154;2023-05-13T04:43:20;5.43;;;2.97;;
71464;SDS011;59274;49.874;9.154;2023-05-13T04:45:46;3.63;;;1.77;;
71464;SDS011;59274;49.874;9.154;2023-05-13T04:48:13;5.50;;;2.25;;
71464;SDS011;59274;49.874;9.154;2023-05-13T04:50:38;3.30;;;1.70;;
71464;SDS011;59274;49.874;9.154;2023-05-13T04:53:08;3.70;;;2.30;;
71464;SDS011;59274;49.874;9.154;2023-05-13T04:55:33;3.47;;;2.30;;
71464;SDS011;59274;49.874;9.154;2023-05-13T04:57:59;3.83;;;2.07;;
71464;SDS011;59274;49.874;9.154;2023-05-13T05:00:24;5.15;;;2.65;;
71464;SDS011;59274;49.874;9.154;2023-05-13T05:02:50;5.17;;;2.63;;
71464;SDS011;59274;49.874;9.154;2023-05-13T05:05:15;3.47;;;1.77;;
71464;SDS011;59274;49.874;9.154;2023-05-13T05:07:41;4.90;;;2.15;;
71464;SDS011;59274;49.874;9.154;2023-05-13T05:10:07;4.60;;;2.42;;
71464;SDS011;59274;49.874;9.154;2023-05-13T05:12:32;2.97;;;1.87;;
71464;SDS011;59274;49.874;9.154;2023-05-13T05:14:58;5.22;;;2.65;;
71464;SDS011;59274;49.874;9.154;2023-05-13T05:17:23;3.87;;;1.90;;
71464;SDS011;59274;49.874;9.154;2023-05-13T05:19:49;3.20;;;1.77;;
71464;SDS011;59274;49.874;9.154;2023-05-13T05:22:14;3.35;;;1.83;;
71464;SDS011;59274;49.874;9.154;2023-05-13T05:24:40;3.83;;;2.13;;
71464;SDS011;59274;49.874;9.154;2023-05-13T05:27:05;4.67;;;2.20;;
71464;SDS011;59274;49.874;9.154;2023-05-13T05:29:31;3.50;;;2.27;;
71464;SDS011;59274;49.874;9.154;2023-05-13T05:31:56;3.13;;;1.83;;
71464;SDS011;59274;49.874;9.154;2023-05-13T05:34:21;4.00;;;2.45;;
71464;SDS011;59274;49.874;9.154;2023-05-13T05:36:47;4.90;;;2.63;;
71464;SDS011;59274;49.874;9.154;2023-05-13T05:39:12;4.60;;;2.47;;
71464;SDS011;59274;49.874;9.154;2023-05-13T05:41:38;5.63;;;2.10;;
71464;SDS011;59274;49.874;9.154;2023-05-13T05:44:03;5.50;;;3.00;;
71464;SDS011;59274;49.874;9.154;2023-05-13T05:46:28;5.68;;;2.30;;
71464;SDS011;59274;49.874;9.154;2023-05-13T05:48:54;4.53;;;2.17;;
71464;SDS011;59274;49.874;9.154;2023-05-13T05:51:19;5.70;;;2.60;;
71464;SDS011;59274;49.874;9.154;2023-05-13T05:53:45;5.27;;;2.37;;
71464;SDS011;59274;49.874;9.154;2023-05-13T05:56:10;5.53;;;2.67;;
71464;SDS011;59274;49.874;9.154;2023-05-13T05:58:36;5.28;;;2.45;;
71464;SDS011;59274;49.874;9.154;2023-05-13T06:01:01;4.60;;;2.43;;
71464;SDS011;59274;49.874;9.154;2023-05-13T06:03:27;5.30;;;2.60;;
71464;SDS011;59274;49.874;9.154;2023-05-13T06:05:52;5.77;;;2.50;;
71464;SDS011;59274;49.874;9.154;2023-05-13T06:08:18;4.47;;;1.90;;
71464;SDS011;59274;49.874;9.154;2023-05-13T06:10:44;3.15;;;1.77;;
71464;SDS011;59274;49.874;9.154;2023-05-13T06:13:10;2.57;;;1.47;;
71464;SDS011;59274;49.874;9.154;2023-05-13T06:15:36;3.47;;;1.83;;
71464;SDS011;59274;49.874;9.154;2023-05-13T06:18:02;5.18;;;2.28;;
71464;SDS011;59274;49.874;9.154;2023-05-13T06:20:29;3.63;;;2.10;;
71464;SDS011;59274;49.874;9.154;2023-05-13T06:22:57;5.32;;;2.78;;
71464;SDS011;59274;49.874;9.154;2023-05-13T06:25:23;3.07;;;1.90;;
71464;SDS011;59274;49.874;9.154;2023-05-13T06:27:48;3.50;;;1.73;;
71464;SDS011;59274;49.874;9.154;2023-05-13T06:30:14;4.95;;;2.40;;
71464;SDS011;59274;49.874;9.154;2023-05-13T06:32:39;5.40;;;1.95;;
71464;SDS011;59274;49.874;9.154;2023-05-13T06:35:05;3.77;;;2.10;;
71464;SDS011;59274;49.874;9.154;2023-05-13T06:37:31;3.00;;;1.52;;
71464;SDS011;59274;49.874;9.154;2023-05-13T06:39:56;3.80;;;1.53;;
71464;SDS011;59274;49.874;9.154;2023-05-13T06:42:23;4.13;;;2.20;;
71464;SDS011;59274;49.874;9.154;2023-05-13T06:44:49;4.50;;;2.40;;
71464;SDS011;59274;49.874;9.154;2023-05-13T06:47:14;4.17;;;2.07;;
71464;SDS011;59274;49.874;9.154;2023-05-13T06:49:40;2.75;;;1.67;;
71464;SDS011;59274;49.874;9.154;2023-05-13T06:52:07;2.85;;;1.60;;
71464;SDS011;59274;49.874;9.154;2023-05-13T06:54:33;4.43;;;1.40;;
71464;SDS011;59274;49.874;9.154;2023-05-13T06:56:58;3.30;;;1.77;;
71464;SDS011;59274;49.874;9.154;2023-05-13T06:59:24;4.37;;;2.00;;
71464;SDS011;59274;49.874;9.154;2023-05-13T07:01:50;3.75;;;2.03;;
71464;SDS011;59274;49.874;9.154;2023-05-13T07:04:15;3.85;;;1.90;;
71464;SDS011;59274;49.874;9.154;2023-05-13T07:06:40;4.83;;;2.10;;
71464;SDS011;59274;49.874;9.154;2023-05-13T07:09:06;4.87;;;2.53;;
71464;SDS011;59274;49.874;9.154;2023-05-13T07:11:34;4.15;;;1.65;;
71464;SDS011;59274;49.874;9.154;2023-05-13T07:14:00;4.15;;;1.95;;
71464;SDS011;59274;49.874;9.154;2023-05-13T07:16:25;3.20;;;1.70;;
71464;SDS011;59274;49.874;9.154;2023-05-13T07:18:50;6.67;;;2.40;;
71464;SDS011;59274;49.874;9.154;2023-05-13T07:21:18;3.80;;;1.80;;
71464;SDS011;59274;49.874;9.154;2023-05-13T07:23:43;3.70;;;2.10;;
71464;SDS011;59274;49.874;9.154;2023-05-13T07:26:08;2.43;;;1.40;;
71464;SDS011;59274;49.874;9.154;2023-05-13T07:28:34;3.58;;;1.85;;
71464;SDS011;59274;49.874;9.154;2023-05-13T07:30:59;3.15;;;1.60;;
71464;SDS011;59274;49.874;9.154;2023-05-13T07:33:25;3.37;;;1.73;;
71464;SDS011;59274;49.874;9.154;2023-05-13T07:35:50;2.77;;;1.60;;
71464;SDS011;59274;49.874;9.154;2023-05-13T07:38:15;2.97;;;1.57;;
71464;SDS011;59274;49.874;9.154;2023-05-13T07:40:41;3.38;;;1.70;;
71464;SDS011;59274;49.874;9.154;2023-05-13T07:43:06;3.17;;;1.30;;
71464;SDS011;59274;49.874;9.154;2023-05-13T07:45:32;2.97;;;1.40;;
71464;SDS011;59274;49.874;9.154;2023-05-13T07:47:58;2.42;;;1.42;;
71464;SDS011;59274;49.874;9.154;2023-05-13T07:50:23;2.73;;;1.37;;
71464;SDS011;59274;49.874;9.154;2023-05-13T07:52:49;3.60;;;1.80;;
71464;SDS011;59274;49.874;9.154;2023-05-13T07:55:15;3.25;;;1.85;;
71464;SDS011;59274;49.874;9.154;2023-05-13T07:57:41;4.18;;;1.50;;
71464;SDS011;59274;49.874;9.154;2023-05-13T08:00:07;1.93;;;1.10;;
71464;SDS011;59274;49.874;9.154;2023-05-13T08:02:32;2.03;;;1.48;;
71464;SDS011;59274;49.874;9.154;2023-05-13T08:05:02;2.37;;;1.40;;
71464;SDS011;59274;49.874;9.154;2023-05-13T08:07:27;2.45;;;1.17;;
71464;SDS011;59274;49.874;9.154;2023-05-13T08:09:53;2.13;;;1.27;;
71464;SDS011;59274;49.874;9.154;2023-05-13T08:12:18;1.53;;;1.03;;
71464;SDS011;59274;49.874;9.154;2023-05-13T08:14:44;2.30;;;1.37;;
71464;SDS011;59274;49.874;9.154;2023-05-13T08:17:09;3.83;;;1.33;;
71464;SDS011;59274;49.874;9.154;2023-05-13T08:19:35;2.72;;;1.33;;
71464;SDS011;59274;49.874;9.154;2023-05-13T08:22:00;2.03;;;1.13;;
71464;SDS011;59274;49.874;9.154;2023-05-13T08:24:26;2.33;;;1.40;;
71464;SDS011;59274;49.874;9.154;2023-05-13T08:26:51;2.92;;;1.40;;
71464;SDS011;59274;49.874;9.154;2023-05-13T08:29:17;2.20;;;1.33;;
71464;SDS011;59274;49.874;9.154;2023-05-13T08:31:42;2.83;;;1.20;;
71464;SDS011;59274;49.874;9.154;2023-05-13T08:34:08;3.70;;;1.50;;
71464;SDS011;59274;49.874;9.154;2023-05-13T08:36:33;3.00;;;1.50;;
71464;SDS011;59274;49.874;9.154;2023-05-13T08:38:58;2.55;;;1.38;;
71464;SDS011;59274;49.874;9.154;2023-05-13T08:41:25;3.97;;;1.87;;
71464;SDS011;59274;49.874;9.154;2023-05-13T08:43:51;2.85;;;1.25;;
71464;SDS011;59274;49.874;9.154;2023-05-13T08:46:20;2.45;;;1.55;;
71464;SDS011;59274;49.874;9.154;2023-05-13T08:48:49;4.18;;;1.55;;
71464;SDS011;59274;49.874;9.154;2023-05-13T08:51:15;2.80;;;1.27;;
71464;SDS011;59274;49.874;9.154;2023-05-13T08:53:40;2.08;;;1.10;;
71464;SDS011;59274;49.874;9.154;2023-05-13T08:56:08;2.63;;;1.55;;
71464;SDS011;59274;49.874;9.154;2023-05-13T08:58:34;3.10;;;1.80;;
71464;SDS011;59274;49.874;9.154;2023-05-13T09:00:59;3.53;;;1.90;;
71464;SDS011;59274;49.874;9.154;2023-05-13T09:03:26;3.15;;;1.58;;
71464;SDS011;59274;49.874;9.154;2023-05-13T09:05:51;2.47;;;1.40;;
71464;SDS011;59274;49.874;9.154;2023-05-13T09:08:17;2.87;;;1.73;;
71464;SDS011;59274;49.874;9.154;2023-05-13T09:10:42;2.40;;;1.50;;
71464;SDS011;59274;49.874;9.154;2023-05-13T09:13:10;2.70;;;1.40;;
71464;SDS011;59274;49.874;9.154;2023-05-13T09:15:35;3.95;;;1.67;;
71464;SDS011;59274;49.874;9.154;2023-05-13T09:18:04;3.93;;;1.73;;
71464;SDS011;59274;49.874;9.154;2023-05-13T09:20:31;6.15;;;2.00;;
71464;SDS011;59274;49.874;9.154;2023-05-13T09:22:57;4.35;;;2.10;;
71464;SDS011;59274;49.874;9.154;2023-05-13T09:25:25;3.80;;;1.60;;
71464;SDS011;59274;49.874;9.154;2023-05-13T09:27:52;2.90;;;1.50;;
71464;SDS011;59274;49.874;9.154;2023-05-13T09:30:22;2.88;;;1.52;;
71464;SDS011;59274;49.874;9.154;2023-05-13T09:35:29;5.20;;;1.80;;
71464;SDS011;59274;49.874;9.154;2023-05-13T09:37:56;3.30;;;1.83;;
71464;SDS011;59274;49.874;9.154;2023-05-13T09:40:22;3.17;;;1.90;;
71464;SDS011;59274;49.874;9.154;2023-05-13T09:42:47;3.93;;;1.90;;
71464;SDS011;59274;49.874;9.154;2023-05-13T09:45:14;2.47;;;1.60;;
71464;SDS011;59274;49.874;9.154;2023-05-13T09:47:41;3.13;;;1.73;;
71464;SDS011;59274;49.874;9.154;2023-05-13T09:50:07;4.03;;;1.80;;
71464;SDS011;59274;49.874;9.154;2023-05-13T09:52:34;3.95;;;1.55;;
71464;SDS011;59274;49.874;9.154;2023-05-13T09:55:01;3.28;;;1.77;;
71464;SDS011;59274;49.874;9.154;2023-05-13T09:57:30;2.80;;;1.50;;
71464;SDS011;59274;49.874;9.154;2023-05-13T10:00:00;3.08;;;1.70;;
71464;SDS011;59274;49.874;9.154;2023-05-13T10:02:31;2.92;;;1.85;;
71464;SDS011;59274;49.874;9.154;2023-05-13T10:04:58;3.40;;;1.77;;
71464;SDS011;59274;49.874;9.154;2023-05-13T10:07:24;2.92;;;1.70;;
71464;SDS011;59274;49.874;9.154;2023-05-13T10:09:54;3.53;;;1.70;;
71464;SDS011;59274;49.874;9.154;2023-05-13T10:12:23;4.05;;;2.22;;
71464;SDS011;59274;49.874;9.154;2023-05-13T10:14:50;2.92;;;1.80;;
71464;SDS011;59274;49.874;9.154;2023-05-13T10:17:20;4.93;;;1.90;;
71464;SDS011;59274;49.874;9.154;2023-05-13T10:19:48;3.05;;;1.80;;
71464;SDS011;59274;49.874;9.154;2023-05-13T10:22:17;3.33;;;1.60;;
71464;SDS011;59274;49.874;9.154;2023-05-13T10:24:52;2.03;;;1.42;;
71464;SDS011;59274;49.874;9.154;2023-05-13T10:27:20;2.90;;;1.70;;
71464;SDS011;59274;49.874;9.154;2023-05-13T10:29:49;3.20;;;1.83;;
71464;SDS011;59274;49.874;9.154;2023-05-13T10:32:18;3.83;;;1.70;;
71464;SDS011;59274;49.874;9.154;2023-05-13T10:34:43;3.10;;;1.70;;
71464;SDS011;59274;49.874;9.154;2023-05-13T10:37:21;3.45;;;1.75;;
71464;SDS011;59274;49.874;9.154;2023-05-13T10:42:38;5.03;;;1.95;;
71464;SDS011;59274;49.874;9.154;2023-05-13T10:45:08;3.53;;;1.90;;
71464;SDS011;59274;49.874;9.154;2023-05-13T10:47:34;4.00;;;1.90;;
71464;SDS011;59274;49.874;9.154;2023-05-13T10:52:49;2.45;;;1.80;;
71464;SDS011;59274;49.874;9.154;2023-05-13T10:55:16;3.83;;;2.10;;
71464;SDS011;59274;49.874;9.154;2023-05-13T10:58:02;2.72;;;1.88;;
71464;SDS011;59274;49.874;9.154;2023-05-13T11:00:31;3.00;;;1.90;;
71464;SDS011;59274;49.874;9.154;2023-05-13T11:03:07;3.47;;;1.98;;
71464;SDS011;59274;49.874;9.154;2023-05-13T11:08:45;3.58;;;2.08;;
71464;SDS011;59274;49.874;9.154;2023-05-13T11:14:20;3.83;;;1.95;;
71464;SDS011;59274;49.874;9.154;2023-05-13T11:16:52;4.47;;;1.75;;
71464;SDS011;59274;49.874;9.154;2023-05-13T11:19:22;4.18;;;2.05;;
71464;SDS011;59274;49.874;9.154;2023-05-13T11:21:51;3.25;;;1.98;;
71464;SDS011;59274;49.874;9.154;2023-05-13T11:24:21;2.65;;;1.85;;
71464;SDS011;59274;49.874;9.154;2023-05-13T11:26:48;3.28;;;1.88;;
71464;SDS011;59274;49.874;9.154;2023-05-13T11:31:58;3.95;;;2.00;;
71464;SDS011;59274;49.874;9.154;2023-05-13T11:34:24;4.55;;;2.15;;
71464;SDS011;59274;49.874;9.154;2023-05-13T11:36:54;3.83;;;2.10;;
71464;SDS011;59274;49.874;9.154;2023-05-13T11:39:22;3.58;;;1.98;;
71464;SDS011;59274;49.874;9.154;2023-05-13T11:41:51;3.15;;;1.92;;
71464;SDS011;59274;49.874;9.154;2023-05-13T11:44:21;3.85;;;1.90;;
71464;SDS011;59274;49.874;9.154;2023-05-13T11:54:30;3.42;;;1.90;;
71464;SDS011;59274;49.874;9.154;2023-05-13T11:56:55;5.15;;;2.03;;
71464;SDS011;59274;49.874;9.154;2023-05-13T11:59:21;2.72;;;1.83;;
71464;SDS011;59274;49.874;9.154;2023-05-13T12:02:05;3.63;;;1.97;;
71464;SDS011;59274;49.874;9.154;2023-05-13T12:04:30;3.00;;;1.98;;
71464;SDS011;59274;49.874;9.154;2023-05-13T12:06:56;4.10;;;2.20;;
71464;SDS011;59274;49.874;9.154;2023-05-13T12:09:22;4.55;;;2.22;;
71464;SDS011;59274;49.874;9.154;2023-05-13T12:11:49;3.38;;;2.08;;
71464;SDS011;59274;49.874;9.154;2023-05-13T12:14:16;3.60;;;2.17;;
71464;SDS011;59274;49.874;9.154;2023-05-13T12:16:43;5.25;;;2.30;;
71464;SDS011;59274;49.874;9.154;2023-05-13T12:19:08;3.87;;;2.33;;
71464;SDS011;59274;49.874;9.154;2023-05-13T12:21:35;4.25;;;2.35;;
71464;SDS011;59274;49.874;9.154;2023-05-13T12:24:14;4.15;;;2.42;;
71464;SDS011;59274;49.874;9.154;2023-05-13T12:26:43;3.90;;;2.03;;
71464;SDS011;59274;49.874;9.154;2023-05-13T12:29:10;3.42;;;2.30;;
71464;SDS011;59274;49.874;9.154;2023-05-13T12:31:35;3.50;;;2.17;;
71464;SDS011;59274;49.874;9.154;2023-05-13T12:34:00;3.35;;;1.95;;
71464;SDS011;59274;49.874;9.154;2023-05-13T12:36:27;4.00;;;1.80;;
71464;SDS011;59274;49.874;9.154;2023-05-13T12:39:05;3.15;;;1.67;;
71464;SDS011;59274;49.874;9.154;2023-05-13T12:41:38;3.63;;;1.80;;
71464;SDS011;59274;49.874;9.154;2023-05-13T12:44:14;2.63;;;1.80;;
71464;SDS011;59274;49.874;9.154;2023-05-13T12:46:49;3.10;;;1.60;;
71464;SDS011;59274;49.874;9.154;2023-05-13T12:49:16;2.33;;;1.50;;
71464;SDS011;59274;49.874;9.154;2023-05-13T12:51:41;3.00;;;1.60;;
71464;SDS011;59274;49.874;9.154;2023-05-13T12:54:06;2.60;;;1.60;;
71464;SDS011;59274;49.874;9.154;2023-05-13T12:56:32;2.88;;;1.67;;
71464;SDS011;59274;49.874;9.154;2023-05-13T12:58:57;2.97;;;1.90;;
71464;SDS011;59274;49.874;9.154;2023-05-13T13:01:23;3.80;;;1.50;;
71464;SDS011;59274;49.874;9.154;2023-05-13T13:03:48;3.40;;;1.70;;
71464;SDS011;59274;49.874;9.154;2023-05-13T13:06:14;3.90;;;1.87;;
71464;SDS011;59274;49.874;9.154;2023-05-13T13:08:39;1.90;;;1.60;;
71464;SDS011;59274;49.874;9.154;2023-05-13T13:11:05;3.00;;;1.70;;
71464;SDS011;59274;49.874;9.154;2023-05-13T13:13:31;2.60;;;1.70;;
71464;SDS011;59274;49.874;9.154;2023-05-13T13:15:57;2.30;;;1.55;;
71464;SDS011;59274;49.874;9.154;2023-05-13T13:18:23;3.53;;;1.60;;
71464;SDS011;59274;49.874;9.154;2023-05-13T13:20:49;3.03;;;1.70;;
71464;SDS011;59274;49.874;9.154;2023-05-13T13:23:16;3.10;;;1.50;;
71464;SDS011;59274;49.874;9.154;2023-05-13T13:25:42;5.18;;;1.58;;
71464;SDS011;59274;49.874;9.154;2023-05-13T13:28:07;2.07;;;1.40;;
71464;SDS011;59274;49.874;9.154;2023-05-13T13:30:33;2.83;;;1.70;;
71464;SDS011;59274;49.874;9.154;2023-05-13T13:32:58;3.43;;;1.90;;
71464;SDS011;59274;49.874;9.154;2023-05-13T13:35:24;3.63;;;2.03;;
71464;SDS011;59274;49.874;9.154;2023-05-13T13:37:49;3.37;;;2.00;;
71464;SDS011;59274;49.874;9.154;2023-05-13T13:40:15;2.42;;;1.73;;
71464;SDS011;59274;49.874;9.154;2023-05-13T13:42:41;2.40;;;1.40;;
71464;SDS011;59274;49.874;9.154;2023-05-13T13:45:06;2.65;;;1.60;;
71464;SDS011;59274;49.874;9.154;2023-05-13T13:47:32;2.40;;;1.47;;
71464;SDS011;59274;49.874;9.154;2023-05-13T13:49:59;3.05;;;1.55;;
71464;SDS011;59274;49.874;9.154;2023-05-13T13:52:24;3.07;;;1.63;;
71464;SDS011;59274;49.874;9.154;2023-05-13T13:54:52;3.22;;;1.73;;
71464;SDS011;59274;49.874;9.154;2023-05-13T13:57:18;3.95;;;1.80;;
71464;SDS011;59274;49.874;9.154;2023-05-13T13:59:43;2.73;;;1.87;;
71464;SDS011;59274;49.874;9.154;2023-05-13T14:02:09;3.87;;;1.80;;
71464;SDS011;59274;49.874;9.154;2023-05-13T14:04:34;3.15;;;1.67;;
71464;SDS011;59274;49.874;9.154;2023-05-13T14:07:00;2.00;;;1.40;;
71464;SDS011;59274;49.874;9.154;2023-05-13T14:09:25;3.05;;;1.77;;
71464;SDS011;59274;49.874;9.154;2023-05-13T14:11:51;3.15;;;1.73;;
71464;SDS011;59274;49.874;9.154;2023-05-13T14:14:17;3.33;;;1.80;;
71464;SDS011;59274;49.874;9.154;2023-05-13T14:16:43;3.22;;;1.83;;
71464;SDS011;59274;49.874;9.154;2023-05-13T14:19:09;1.93;;;1.40;;
71464;SDS011;59274;49.874;9.154;2023-05-13T14:21:35;2.17;;;1.30;;
71464;SDS011;59274;49.874;9.154;2023-05-13T14:24:01;2.47;;;1.70;;
71464;SDS011;59274;49.874;9.154;2023-05-13T14:26:30;4.18;;;1.60;;
71464;SDS011;59274;49.874;9.154;2023-05-13T14:28:55;3.00;;;1.80;;
71464;SDS011;59274;49.874;9.154;2023-05-13T14:31:21;4.70;;;2.10;;
71464;SDS011;59274;49.874;9.154;2023-05-13T14:33:46;2.85;;;1.67;;
71464;SDS011;59274;49.874;9.154;2023-05-13T14:36:12;3.30;;;1.70;;
71464;SDS011;59274;49.874;9.154;2023-05-13T14:38:40;3.33;;;1.60;;
71464;SDS011;59274;49.874;9.154;2023-05-13T14:41:07;3.83;;;1.77;;
71464;SDS011;59274;49.874;9.154;2023-05-13T14:43:32;2.63;;;1.63;;
71464;SDS011;59274;49.874;9.154;2023-05-13T14:45:57;2.27;;;1.60;;
71464;SDS011;59274;49.874;9.154;2023-05-13T14:48:23;2.20;;;1.50;;
71464;SDS011;59274;49.874;9.154;2023-05-13T14:50:48;2.60;;;1.33;;
71464;SDS011;59274;49.874;9.154;2023-05-13T14:53:14;3.87;;;1.60;;
71464;SDS011;59274;49.874;9.154;2023-05-13T14:55:39;2.57;;;1.50;;
71464;SDS011;59274;49.874;9.154;2023-05-13T14:58:05;2.67;;;1.83;;
71464;SDS011;59274;49.874;9.154;2023-05-13T15:00:33;2.63;;;1.70;;
71464;SDS011;59274;49.874;9.154;2023-05-13T15:02:59;3.08;;;1.60;;
71464;SDS011;59274;49.874;9.154;2023-05-13T15:05:24;4.88;;;1.88;;
71464;SDS011;59274;49.874;9.154;2023-05-13T15:07:50;3.33;;;1.70;;
71464;SDS011;59274;49.874;9.154;2023-05-13T15:10:16;2.92;;;1.70;;
71464;SDS011;59274;49.874;9.154;2023-05-13T15:12:42;3.37;;;1.90;;
71464;SDS011;59274;49.874;9.154;2023-05-13T15:15:07;3.10;;;1.70;;